Lucknow Airport
VILK : now visible

Airfield :











YOU CAN JOIN US ON...

 
LOGIN :

Register | Disclaimer

   EN    FR    IT 

 









Legend :    VFR   Marginal VFR   IFR   Intensive IFR   Very Intensive IFR
Visi :
Ceiling :
>= 8 km
>= 3000ft
5 to 8 km
1000 to 3000 ft
1500m to 5 km
500 to 1000 ft
800 to 1500m
200 to 500 ft
< 800m
< 200 ft
Symbols :   Thunderstorms  Fog  Heavy snow  Heavy precipitations  Wind > 20 kt






- Airport Elevation : 410 ft
- IATA code : LKO


VILK - Lucknow

CURRENT METAR :
  • 230030Z 06006KT 2500 BR SCT012 SCT018 FEW030CB OVC090 26/25 Q1000 NOSIG

EXPIRED METARs :
  • 230000Z 09006KT 2500 BR SCT018 FEW030CB OVC090 26/25 Q1000 NOSIG
  • 222330Z 08005KT 2500 BR SCT012 SCT018 FEW030CB OVC090 26/25 Q1000 NOSIG
  • 222300Z 08006KT 2500 -RA SCT012 SCT018 FEW030CB OVC090 26/25 Q1000 NOSIG
  • 222230Z 08006KT 2500 -RA SCT012 SCT018 FEW030CB OVC090 26/25 Q1000 NOSIG
  • 222200Z 08006KT 2000 -RA SCT012 SCT018 FEW030CB OVC090 26/25 Q1000 NOSIG

TAF TAF VILK
Valid from the 23 at 00:00 until the 24 at 06:00 UTC


222300Z 2300/2406 09005KT 2500 BR -RA SCT020 SCT025 BKN100
TEMPO 2305/2309 1000 TSRA RA FEW030CB OVC090
BECMG 2310/2312 2000 BR RA
TEMPO 2314/2318 1500 TSRA RA FEW030CB OVC090
BECMG 2318/2320 2000 BR -RA
TEMPO 2402/2406 1500 TSRA RA FEW030CB OVC090
VIDF FIR / Asia



MET'MAP, your aeronautical weather chart ! - Copyright ORBIFLY December 2007 - Disclaimer

ORBIFLY MET'MAP TEAM :

Programming & Development : Alexandra Zaïnal
Concept & original design : Baudouin d'Aumeries
Assistance for programming : Marc-Olivier Méhu
Technical & hardware support : Manuel Goepfert

Contact : metmap@orbifly.com




SOURCES & CREDITS :

   NOAA       Earth
Advisory